sensor_id;sensor_type;location;lat;lon;timestamp;P1;durP1;ratioP1;P2;durP2;ratioP2
21060;SDS011;10689;50.836;3.266;2022-12-13T00:01:42;24.17;;;14.67;;
21060;SDS011;10689;50.836;3.266;2022-12-13T00:04:09;27.03;;;14.57;;
21060;SDS011;10689;50.836;3.266;2022-12-13T00:06:35;24.93;;;14.70;;
21060;SDS011;10689;50.836;3.266;2022-12-13T00:09:01;28.13;;;16.80;;
21060;SDS011;10689;50.836;3.266;2022-12-13T00:11:29;29.17;;;16.57;;
21060;SDS011;10689;50.836;3.266;2022-12-13T00:13:58;29.93;;;16.53;;
21060;SDS011;10689;50.836;3.266;2022-12-13T00:16:24;28.07;;;15.93;;
21060;SDS011;10689;50.836;3.266;2022-12-13T00:18:52;26.07;;;15.00;;
21060;SDS011;10689;50.836;3.266;2022-12-13T00:21:20;24.13;;;14.50;;
21060;SDS011;10689;50.836;3.266;2022-12-13T00:23:50;24.63;;;15.23;;
21060;SDS011;10689;50.836;3.266;2022-12-13T00:26:18;23.50;;;14.10;;
21060;SDS011;10689;50.836;3.266;2022-12-13T00:28:45;30.97;;;15.27;;
21060;SDS011;10689;50.836;3.266;2022-12-13T00:31:13;26.33;;;16.17;;
21060;SDS011;10689;50.836;3.266;2022-12-13T00:33:40;32.50;;;16.33;;
21060;SDS011;10689;50.836;3.266;2022-12-13T00:36:06;25.37;;;15.17;;
21060;SDS011;10689;50.836;3.266;2022-12-13T00:38:33;21.63;;;13.93;;
21060;SDS011;10689;50.836;3.266;2022-12-13T00:41:08;26.43;;;15.03;;
21060;SDS011;10689;50.836;3.266;2022-12-13T00:43:42;27.70;;;16.30;;
21060;SDS011;10689;50.836;3.266;2022-12-13T00:46:15;24.47;;;14.43;;
21060;SDS011;10689;50.836;3.266;2022-12-13T00:48:43;25.43;;;14.67;;
21060;SDS011;10689;50.836;3.266;2022-12-13T00:51:13;23.27;;;14.43;;
21060;SDS011;10689;50.836;3.266;2022-12-13T00:53:38;30.27;;;14.23;;
21060;SDS011;10689;50.836;3.266;2022-12-13T00:56:09;27.63;;;14.80;;
21060;SDS011;10689;50.836;3.266;2022-12-13T00:58:36;26.43;;;16.03;;
21060;SDS011;10689;50.836;3.266;2022-12-13T01:01:04;29.40;;;15.03;;
21060;SDS011;10689;50.836;3.266;2022-12-13T01:03:34;24.70;;;14.87;;
21060;SDS011;10689;50.836;3.266;2022-12-13T01:06:00;26.23;;;15.03;;
21060;SDS011;10689;50.836;3.266;2022-12-13T01:08:31;28.20;;;15.37;;
21060;SDS011;10689;50.836;3.266;2022-12-13T01:10:57;32.03;;;15.40;;
21060;SDS011;10689;50.836;3.266;2022-12-13T01:13:23;30.13;;;15.37;;
21060;SDS011;10689;50.836;3.266;2022-12-13T01:15:49;33.10;;;16.57;;
21060;SDS011;10689;50.836;3.266;2022-12-13T01:18:15;29.30;;;15.27;;
21060;SDS011;10689;50.836;3.266;2022-12-13T01:23:36;26.47;;;14.40;;
21060;SDS011;10689;50.836;3.266;2022-12-13T01:26:06;25.70;;;16.67;;
21060;SDS011;10689;50.836;3.266;2022-12-13T01:28:33;28.70;;;16.20;;
21060;SDS011;10689;50.836;3.266;2022-12-13T01:31:03;27.93;;;16.00;;
21060;SDS011;10689;50.836;3.266;2022-12-13T01:33:33;26.30;;;15.33;;
21060;SDS011;10689;50.836;3.266;2022-12-13T01:35:59;24.73;;;15.80;;
21060;SDS011;10689;50.836;3.266;2022-12-13T01:38:26;30.67;;;15.70;;
21060;SDS011;10689;50.836;3.266;2022-12-13T01:40:52;22.30;;;14.23;;
21060;SDS011;10689;50.836;3.266;2022-12-13T01:43:25;30.50;;;15.73;;
21060;SDS011;10689;50.836;3.266;2022-12-13T01:46:08;27.33;;;16.33;;
21060;SDS011;10689;50.836;3.266;2022-12-13T01:48:38;23.20;;;15.43;;
21060;SDS011;10689;50.836;3.266;2022-12-13T01:51:14;31.00;;;16.10;;
21060;SDS011;10689;50.836;3.266;2022-12-13T01:53:44;24.50;;;15.23;;
21060;SDS011;10689;50.836;3.266;2022-12-13T01:56:22;22.37;;;14.60;;
21060;SDS011;10689;50.836;3.266;2022-12-13T01:58:55;31.20;;;15.77;;
21060;SDS011;10689;50.836;3.266;2022-12-13T02:01:23;26.87;;;15.27;;
21060;SDS011;10689;50.836;3.266;2022-12-13T02:03:50;26.20;;;15.50;;
21060;SDS011;10689;50.836;3.266;2022-12-13T02:06:16;27.37;;;15.50;;
21060;SDS011;10689;50.836;3.266;2022-12-13T02:09:00;27.00;;;16.23;;
21060;SDS011;10689;50.836;3.266;2022-12-13T02:11:28;26.83;;;14.97;;
21060;SDS011;10689;50.836;3.266;2022-12-13T02:13:54;29.80;;;15.33;;
21060;SDS011;10689;50.836;3.266;2022-12-13T02:24:51;30.00;;;16.97;;
21060;SDS011;10689;50.836;3.266;2022-12-13T02:30:35;22.20;;;15.03;;
21060;SDS011;10689;50.836;3.266;2022-12-13T02:33:10;28.33;;;15.47;;
21060;SDS011;10689;50.836;3.266;2022-12-13T02:35:54;26.03;;;15.43;;
21060;SDS011;10689;50.836;3.266;2022-12-13T02:38:38;26.13;;;15.37;;
21060;SDS011;10689;50.836;3.266;2022-12-13T02:41:32;24.97;;;13.07;;
21060;SDS011;10689;50.836;3.266;2022-12-13T02:44:16;26.83;;;14.87;;
21060;SDS011;10689;50.836;3.266;2022-12-13T02:46:52;25.67;;;15.13;;
21060;SDS011;10689;50.836;3.266;2022-12-13T02:49:24;23.20;;;14.67;;
21060;SDS011;10689;50.836;3.266;2022-12-13T02:51:55;23.67;;;14.40;;
21060;SDS011;10689;50.836;3.266;2022-12-13T02:54:22;30.17;;;16.30;;
21060;SDS011;10689;50.836;3.266;2022-12-13T02:56:55;24.23;;;14.57;;
21060;SDS011;10689;50.836;3.266;2022-12-13T02:59:24;26.77;;;15.10;;
21060;SDS011;10689;50.836;3.266;2022-12-13T03:07:45;25.00;;;15.47;;
21060;SDS011;10689;50.836;3.266;2022-12-13T03:10:36;25.90;;;14.27;;
21060;SDS011;10689;50.836;3.266;2022-12-13T03:13:11;23.83;;;13.70;;
21060;SDS011;10689;50.836;3.266;2022-12-13T03:16:06;26.47;;;15.13;;
21060;SDS011;10689;50.836;3.266;2022-12-13T03:18:53;21.50;;;13.47;;
21060;SDS011;10689;50.836;3.266;2022-12-13T03:21:23;21.80;;;12.97;;
21060;SDS011;10689;50.836;3.266;2022-12-13T03:23:50;25.10;;;14.40;;
21060;SDS011;10689;50.836;3.266;2022-12-13T03:26:17;25.63;;;14.43;;
21060;SDS011;10689;50.836;3.266;2022-12-13T03:28:45;23.63;;;14.03;;
21060;SDS011;10689;50.836;3.266;2022-12-13T03:31:13;26.60;;;15.80;;
21060;SDS011;10689;50.836;3.266;2022-12-13T03:33:40;27.30;;;15.33;;
21060;SDS011;10689;50.836;3.266;2022-12-13T03:36:06;26.37;;;14.00;;
21060;SDS011;10689;50.836;3.266;2022-12-13T03:38:33;27.33;;;15.20;;
21060;SDS011;10689;50.836;3.266;2022-12-13T03:41:01;26.53;;;13.97;;
21060;SDS011;10689;50.836;3.266;2022-12-13T03:43:30;23.63;;;13.77;;
21060;SDS011;10689;50.836;3.266;2022-12-13T03:45:56;25.23;;;14.00;;
21060;SDS011;10689;50.836;3.266;2022-12-13T03:48:22;22.73;;;13.90;;
21060;SDS011;10689;50.836;3.266;2022-12-13T03:50:51;28.07;;;14.53;;
21060;SDS011;10689;50.836;3.266;2022-12-13T03:53:18;20.03;;;12.93;;
21060;SDS011;10689;50.836;3.266;2022-12-13T03:55:45;24.77;;;13.07;;
21060;SDS011;10689;50.836;3.266;2022-12-13T03:58:11;22.37;;;13.00;;
21060;SDS011;10689;50.836;3.266;2022-12-13T04:00:37;24.27;;;13.37;;
21060;SDS011;10689;50.836;3.266;2022-12-13T04:03:03;22.60;;;14.67;;
21060;SDS011;10689;50.836;3.266;2022-12-13T04:05:29;22.57;;;13.43;;
21060;SDS011;10689;50.836;3.266;2022-12-13T04:07:56;26.13;;;13.30;;
21060;SDS011;10689;50.836;3.266;2022-12-13T04:10:22;24.17;;;13.80;;
21060;SDS011;10689;50.836;3.266;2022-12-13T04:12:48;18.90;;;12.33;;
21060;SDS011;10689;50.836;3.266;2022-12-13T04:15:32;22.17;;;12.47;;
21060;SDS011;10689;50.836;3.266;2022-12-13T04:18:00;26.67;;;13.87;;
21060;SDS011;10689;50.836;3.266;2022-12-13T04:20:26;22.00;;;12.57;;
21060;SDS011;10689;50.836;3.266;2022-12-13T04:22:52;20.23;;;12.03;;
21060;SDS011;10689;50.836;3.266;2022-12-13T04:25:18;23.13;;;13.73;;
21060;SDS011;10689;50.836;3.266;2022-12-13T04:27:49;22.20;;;12.90;;
21060;SDS011;10689;50.836;3.266;2022-12-13T04:30:15;21.77;;;12.10;;
21060;SDS011;10689;50.836;3.266;2022-12-13T04:32:42;20.57;;;11.80;;
21060;SDS011;10689;50.836;3.266;2022-12-13T04:35:08;23.00;;;13.33;;
21060;SDS011;10689;50.836;3.266;2022-12-13T04:37:34;23.13;;;12.37;;
21060;SDS011;10689;50.836;3.266;2022-12-13T04:40:00;20.47;;;12.30;;
21060;SDS011;10689;50.836;3.266;2022-12-13T04:42:26;23.53;;;13.23;;
21060;SDS011;10689;50.836;3.266;2022-12-13T04:44:53;22.53;;;13.47;;
21060;SDS011;10689;50.836;3.266;2022-12-13T04:47:19;24.07;;;14.57;;
21060;SDS011;10689;50.836;3.266;2022-12-13T04:49:45;19.30;;;12.63;;
21060;SDS011;10689;50.836;3.266;2022-12-13T04:52:11;24.47;;;12.97;;
21060;SDS011;10689;50.836;3.266;2022-12-13T04:54:38;24.70;;;13.87;;
21060;SDS011;10689;50.836;3.266;2022-12-13T04:57:08;23.97;;;13.43;;
21060;SDS011;10689;50.836;3.266;2022-12-13T04:59:35;20.50;;;12.83;;
21060;SDS011;10689;50.836;3.266;2022-12-13T05:02:02;24.80;;;14.07;;
21060;SDS011;10689;50.836;3.266;2022-12-13T05:04:30;29.33;;;14.37;;
21060;SDS011;10689;50.836;3.266;2022-12-13T05:06:55;24.07;;;15.10;;
21060;SDS011;10689;50.836;3.266;2022-12-13T05:09:22;30.73;;;14.90;;
21060;SDS011;10689;50.836;3.266;2022-12-13T05:11:48;25.83;;;13.53;;
21060;SDS011;10689;50.836;3.266;2022-12-13T05:14:15;58.43;;;17.53;;
21060;SDS011;10689;50.836;3.266;2022-12-13T05:16:43;26.80;;;13.57;;
21060;SDS011;10689;50.836;3.266;2022-12-13T05:19:09;21.73;;;13.30;;
21060;SDS011;10689;50.836;3.266;2022-12-13T05:21:38;23.93;;;15.33;;
21060;SDS011;10689;50.836;3.266;2022-12-13T05:24:04;21.70;;;13.07;;
21060;SDS011;10689;50.836;3.266;2022-12-13T05:26:32;20.87;;;13.17;;
21060;SDS011;10689;50.836;3.266;2022-12-13T05:28:58;23.63;;;14.00;;
21060;SDS011;10689;50.836;3.266;2022-12-13T05:31:24;26.43;;;13.63;;
21060;SDS011;10689;50.836;3.266;2022-12-13T05:33:50;23.67;;;13.33;;
21060;SDS011;10689;50.836;3.266;2022-12-13T05:36:17;21.47;;;13.27;;
21060;SDS011;10689;50.836;3.266;2022-12-13T05:38:43;22.73;;;13.53;;
21060;SDS011;10689;50.836;3.266;2022-12-13T05:41:11;25.93;;;15.07;;
21060;SDS011;10689;50.836;3.266;2022-12-13T05:43:40;25.90;;;14.53;;
21060;SDS011;10689;50.836;3.266;2022-12-13T05:46:07;21.17;;;14.00;;
21060;SDS011;10689;50.836;3.266;2022-12-13T05:48:33;29.57;;;15.57;;
21060;SDS011;10689;50.836;3.266;2022-12-13T05:50:59;28.20;;;15.47;;
21060;SDS011;10689;50.836;3.266;2022-12-13T05:53:25;23.87;;;13.80;;
21060;SDS011;10689;50.836;3.266;2022-12-13T05:55:51;27.53;;;15.47;;
21060;SDS011;10689;50.836;3.266;2022-12-13T05:58:19;27.67;;;15.17;;
21060;SDS011;10689;50.836;3.266;2022-12-13T06:00:45;29.13;;;14.43;;
21060;SDS011;10689;50.836;3.266;2022-12-13T06:03:14;23.97;;;14.20;;
21060;SDS011;10689;50.836;3.266;2022-12-13T06:05:39;23.50;;;13.13;;
21060;SDS011;10689;50.836;3.266;2022-12-13T06:08:07;27.40;;;14.87;;
21060;SDS011;10689;50.836;3.266;2022-12-13T06:10:34;22.83;;;13.43;;
21060;SDS011;10689;50.836;3.266;2022-12-13T06:13:03;24.20;;;14.60;;
21060;SDS011;10689;50.836;3.266;2022-12-13T06:15:30;21.93;;;13.47;;
21060;SDS011;10689;50.836;3.266;2022-12-13T06:17:59;28.17;;;14.27;;
21060;SDS011;10689;50.836;3.266;2022-12-13T06:20:45;37.83;;;15.07;;
21060;SDS011;10689;50.836;3.266;2022-12-13T06:23:21;24.27;;;14.43;;
21060;SDS011;10689;50.836;3.266;2022-12-13T06:25:49;24.33;;;14.33;;
21060;SDS011;10689;50.836;3.266;2022-12-13T06:28:15;21.30;;;12.03;;
21060;SDS011;10689;50.836;3.266;2022-12-13T06:30:43;22.20;;;13.33;;
21060;SDS011;10689;50.836;3.266;2022-12-13T06:33:09;24.13;;;13.70;;
21060;SDS011;10689;50.836;3.266;2022-12-13T06:35:35;25.53;;;14.00;;
21060;SDS011;10689;50.836;3.266;2022-12-13T06:38:01;23.80;;;14.97;;
21060;SDS011;10689;50.836;3.266;2022-12-13T06:40:29;25.57;;;14.23;;
21060;SDS011;10689;50.836;3.266;2022-12-13T06:42:55;26.97;;;13.70;;
21060;SDS011;10689;50.836;3.266;2022-12-13T06:45:21;27.17;;;14.27;;
21060;SDS011;10689;50.836;3.266;2022-12-13T06:47:47;22.03;;;14.00;;
21060;SDS011;10689;50.836;3.266;2022-12-13T06:50:13;27.37;;;15.00;;
21060;SDS011;10689;50.836;3.266;2022-12-13T06:52:39;31.17;;;16.13;;
21060;SDS011;10689;50.836;3.266;2022-12-13T06:55:05;30.20;;;13.77;;
21060;SDS011;10689;50.836;3.266;2022-12-13T06:57:32;28.58;;;15.88;;
21060;SDS011;10689;50.836;3.266;2022-12-13T06:59:58;22.97;;;14.03;;
21060;SDS011;10689;50.836;3.266;2022-12-13T07:02:24;27.07;;;14.57;;
21060;SDS011;10689;50.836;3.266;2022-12-13T07:04:51;33.07;;;15.23;;
21060;SDS011;10689;50.836;3.266;2022-12-13T07:07:20;41.67;;;17.27;;
21060;SDS011;10689;50.836;3.266;2022-12-13T07:09:47;31.83;;;15.60;;
21060;SDS011;10689;50.836;3.266;2022-12-13T07:12:13;23.30;;;15.07;;
21060;SDS011;10689;50.836;3.266;2022-12-13T07:14:39;25.10;;;14.27;;
21060;SDS011;10689;50.836;3.266;2022-12-13T07:17:05;29.80;;;15.37;;
21060;SDS011;10689;50.836;3.266;2022-12-13T07:19:31;26.77;;;16.40;;
21060;SDS011;10689;50.836;3.266;2022-12-13T07:21:57;27.03;;;14.83;;
21060;SDS011;10689;50.836;3.266;2022-12-13T07:24:26;31.53;;;16.03;;
21060;SDS011;10689;50.836;3.266;2022-12-13T07:26:52;26.67;;;16.63;;
21060;SDS011;10689;50.836;3.266;2022-12-13T07:29:34;31.53;;;17.20;;
21060;SDS011;10689;50.836;3.266;2022-12-13T07:32:03;24.57;;;15.53;;
21060;SDS011;10689;50.836;3.266;2022-12-13T07:34:28;27.53;;;16.23;;
21060;SDS011;10689;50.836;3.266;2022-12-13T07:36:55;31.47;;;16.03;;
21060;SDS011;10689;50.836;3.266;2022-12-13T07:39:22;27.67;;;16.03;;
21060;SDS011;10689;50.836;3.266;2022-12-13T07:41:52;31.33;;;15.87;;
21060;SDS011;10689;50.836;3.266;2022-12-13T07:44:21;28.13;;;16.90;;
21060;SDS011;10689;50.836;3.266;2022-12-13T07:46:47;23.60;;;15.60;;
21060;SDS011;10689;50.836;3.266;2022-12-13T07:49:13;27.13;;;14.97;;
21060;SDS011;10689;50.836;3.266;2022-12-13T07:51:39;32.80;;;17.53;;
21060;SDS011;10689;50.836;3.266;2022-12-13T07:54:05;36.07;;;17.63;;
21060;SDS011;10689;50.836;3.266;2022-12-13T07:56:32;38.90;;;17.23;;
21060;SDS011;10689;50.836;3.266;2022-12-13T07:58:59;28.10;;;15.73;;
21060;SDS011;10689;50.836;3.266;2022-12-13T08:01:29;37.40;;;18.87;;
21060;SDS011;10689;50.836;3.266;2022-12-13T08:03:56;29.53;;;17.10;;
21060;SDS011;10689;50.836;3.266;2022-12-13T08:06:31;37.40;;;18.97;;
21060;SDS011;10689;50.836;3.266;2022-12-13T08:09:04;28.10;;;16.27;;
21060;SDS011;10689;50.836;3.266;2022-12-13T08:11:32;45.23;;;17.87;;
21060;SDS011;10689;50.836;3.266;2022-12-13T08:13:58;29.03;;;19.00;;
21060;SDS011;10689;50.836;3.266;2022-12-13T08:16:29;30.17;;;17.10;;
21060;SDS011;10689;50.836;3.266;2022-12-13T08:19:00;28.60;;;17.17;;
21060;SDS011;10689;50.836;3.266;2022-12-13T08:21:35;28.73;;;16.23;;
21060;SDS011;10689;50.836;3.266;2022-12-13T08:24:03;32.60;;;17.40;;
21060;SDS011;10689;50.836;3.266;2022-12-13T08:26:32;32.43;;;19.10;;
21060;SDS011;10689;50.836;3.266;2022-12-13T08:29:00;28.80;;;16.83;;
21060;SDS011;10689;50.836;3.266;2022-12-13T08:31:29;30.60;;;16.93;;
21060;SDS011;10689;50.836;3.266;2022-12-13T08:33:57;37.20;;;18.50;;
21060;SDS011;10689;50.836;3.266;2022-12-13T08:36:26;25.83;;;16.23;;
21060;SDS011;10689;50.836;3.266;2022-12-13T08:38:53;36.33;;;16.30;;
21060;SDS011;10689;50.836;3.266;2022-12-13T08:41:22;27.00;;;16.60;;
21060;SDS011;10689;50.836;3.266;2022-12-13T08:43:50;33.73;;;17.23;;
21060;SDS011;10689;50.836;3.266;2022-12-13T08:46:21;29.57;;;16.70;;
21060;SDS011;10689;50.836;3.266;2022-12-13T08:48:46;42.70;;;18.97;;
21060;SDS011;10689;50.836;3.266;2022-12-13T08:51:13;30.13;;;17.43;;
21060;SDS011;10689;50.836;3.266;2022-12-13T08:53:47;29.60;;;17.90;;
21060;SDS011;10689;50.836;3.266;2022-12-13T08:56:12;25.77;;;16.33;;
21060;SDS011;10689;50.836;3.266;2022-12-13T08:58:41;28.30;;;17.33;;
21060;SDS011;10689;50.836;3.266;2022-12-13T09:01:07;26.07;;;15.43;;
21060;SDS011;10689;50.836;3.266;2022-12-13T09:03:34;25.43;;;16.30;;
21060;SDS011;10689;50.836;3.266;2022-12-13T09:06:09;27.43;;;15.80;;
21060;SDS011;10689;50.836;3.266;2022-12-13T09:08:38;27.13;;;16.90;;
21060;SDS011;10689;50.836;3.266;2022-12-13T09:11:04;29.60;;;16.63;;
21060;SDS011;10689;50.836;3.266;2022-12-13T09:13:33;29.60;;;15.97;;
21060;SDS011;10689;50.836;3.266;2022-12-13T09:16:13;26.23;;;16.30;;
21060;SDS011;10689;50.836;3.266;2022-12-13T09:18:43;28.00;;;15.40;;
21060;SDS011;10689;50.836;3.266;2022-12-13T09:21:13;26.50;;;15.97;;
21060;SDS011;10689;50.836;3.266;2022-12-13T09:23:39;31.37;;;16.80;;
21060;SDS011;10689;50.836;3.266;2022-12-13T09:26:09;25.27;;;14.73;;
21060;SDS011;10689;50.836;3.266;2022-12-13T09:28:37;24.03;;;14.43;;
21060;SDS011;10689;50.836;3.266;2022-12-13T09:31:08;20.53;;;14.17;;
21060;SDS011;10689;50.836;3.266;2022-12-13T09:33:42;22.90;;;15.33;;
21060;SDS011;10689;50.836;3.266;2022-12-13T09:36:12;21.63;;;14.97;;
21060;SDS011;10689;50.836;3.266;2022-12-13T09:38:41;25.30;;;16.67;;
21060;SDS011;10689;50.836;3.266;2022-12-13T09:44:01;26.50;;;16.50;;
21060;SDS011;10689;50.836;3.266;2022-12-13T09:46:34;23.63;;;16.30;;
21060;SDS011;10689;50.836;3.266;2022-12-13T09:49:03;23.03;;;14.77;;
21060;SDS011;10689;50.836;3.266;2022-12-13T09:51:34;23.60;;;15.63;;
21060;SDS011;10689;50.836;3.266;2022-12-13T09:54:04;23.53;;;14.43;;
21060;SDS011;10689;50.836;3.266;2022-12-13T09:56:32;24.73;;;15.13;;
21060;SDS011;10689;50.836;3.266;2022-12-13T09:58:58;23.90;;;15.37;;
21060;SDS011;10689;50.836;3.266;2022-12-13T10:01:24;23.67;;;15.50;;
21060;SDS011;10689;50.836;3.266;2022-12-13T10:03:51;19.80;;;13.80;;
21060;SDS011;10689;50.836;3.266;2022-12-13T10:06:19;18.90;;;13.90;;
21060;SDS011;10689;50.836;3.266;2022-12-13T10:08:47;21.43;;;14.80;;
21060;SDS011;10689;50.836;3.266;2022-12-13T10:11:16;23.13;;;13.83;;
21060;SDS011;10689;50.836;3.266;2022-12-13T10:22:18;23.47;;;13.90;;
21060;SDS011;10689;50.836;3.266;2022-12-13T10:35:35;20.43;;;12.70;;
21060;SDS011;10689;50.836;3.266;2022-12-13T10:38:21;20.07;;;12.43;;
21060;SDS011;10689;50.836;3.266;2022-12-13T10:40:52;18.33;;;12.23;;
21060;SDS011;10689;50.836;3.266;2022-12-13T10:48:35;19.40;;;12.33;;
21060;SDS011;10689;50.836;3.266;2022-12-13T10:51:12;19.83;;;11.20;;
21060;SDS011;10689;50.836;3.266;2022-12-13T10:53:46;20.87;;;11.53;;
21060;SDS011;10689;50.836;3.266;2022-12-13T10:56:22;20.10;;;12.10;;
21060;SDS011;10689;50.836;3.266;2022-12-13T11:01:47;15.57;;;11.27;;
21060;SDS011;10689;50.836;3.266;2022-12-13T11:04:25;17.93;;;12.03;;
21060;SDS011;10689;50.836;3.266;2022-12-13T11:07:44;14.73;;;10.77;;
21060;SDS011;10689;50.836;3.266;2022-12-13T11:10:15;16.20;;;11.23;;
21060;SDS011;10689;50.836;3.266;2022-12-13T11:12:47;18.07;;;11.20;;
21060;SDS011;10689;50.836;3.266;2022-12-13T11:15:18;20.13;;;11.83;;
21060;SDS011;10689;50.836;3.266;2022-12-13T11:17:56;17.20;;;11.20;;
21060;SDS011;10689;50.836;3.266;2022-12-13T11:20:49;13.63;;;10.00;;
21060;SDS011;10689;50.836;3.266;2022-12-13T11:23:26;16.47;;;10.30;;
21060;SDS011;10689;50.836;3.266;2022-12-13T11:25:55;12.57;;;9.53;;
21060;SDS011;10689;50.836;3.266;2022-12-13T11:28:28;16.93;;;10.30;;
21060;SDS011;10689;50.836;3.266;2022-12-13T11:31:40;14.47;;;10.33;;
21060;SDS011;10689;50.836;3.266;2022-12-13T11:34:47;16.07;;;10.73;;
21060;SDS011;10689;50.836;3.266;2022-12-13T11:40:16;20.50;;;11.40;;
21060;SDS011;10689;50.836;3.266;2022-12-13T11:45:38;20.03;;;11.43;;
21060;SDS011;10689;50.836;3.266;2022-12-13T11:50:46;14.93;;;9.93;;
21060;SDS011;10689;50.836;3.266;2022-12-13T11:58:51;14.20;;;10.07;;
21060;SDS011;10689;50.836;3.266;2022-12-13T12:01:25;17.07;;;9.70;;
21060;SDS011;10689;50.836;3.266;2022-12-13T12:06:40;16.27;;;9.43;;
21060;SDS011;10689;50.836;3.266;2022-12-13T12:09:13;12.17;;;9.30;;
21060;SDS011;10689;50.836;3.266;2022-12-13T12:14:45;14.90;;;10.27;;
21060;SDS011;10689;50.836;3.266;2022-12-13T12:17:20;13.60;;;9.87;;
21060;SDS011;10689;50.836;3.266;2022-12-13T12:19:53;16.07;;;10.37;;
21060;SDS011;10689;50.836;3.266;2022-12-13T12:30:22;14.20;;;9.90;;
21060;SDS011;10689;50.836;3.266;2022-12-13T12:38:05;16.00;;;10.60;;
21060;SDS011;10689;50.836;3.266;2022-12-13T12:43:41;13.10;;;8.97;;
21060;SDS011;10689;50.836;3.266;2022-12-13T12:51:52;15.40;;;8.83;;
21060;SDS011;10689;50.836;3.266;2022-12-13T12:57:17;13.20;;;8.67;;
21060;SDS011;10689;50.836;3.266;2022-12-13T12:59:56;15.23;;;10.00;;
21060;SDS011;10689;50.836;3.266;2022-12-13T13:05:14;17.27;;;10.27;;
21060;SDS011;10689;50.836;3.266;2022-12-13T13:07:47;14.73;;;8.90;;
21060;SDS011;10689;50.836;3.266;2022-12-13T13:10:19;14.07;;;8.83;;
21060;SDS011;10689;50.836;3.266;2022-12-13T13:12:49;15.10;;;9.87;;
21060;SDS011;10689;50.836;3.266;2022-12-13T13:17:57;12.70;;;8.53;;
21060;SDS011;10689;50.836;3.266;2022-12-13T13:20:24;15.07;;;9.50;;
21060;SDS011;10689;50.836;3.266;2022-12-13T13:22:54;14.20;;;8.83;;
21060;SDS011;10689;50.836;3.266;2022-12-13T13:25:31;16.77;;;9.50;;
21060;SDS011;10689;50.836;3.266;2022-12-13T13:28:02;12.90;;;8.43;;
21060;SDS011;10689;50.836;3.266;2022-12-13T13:30:31;11.43;;;8.07;;
21060;SDS011;10689;50.836;3.266;2022-12-13T13:33:01;15.20;;;8.90;;
21060;SDS011;10689;50.836;3.266;2022-12-13T13:40:49;18.10;;;8.97;;
21060;SDS011;10689;50.836;3.266;2022-12-13T13:43:29;16.23;;;8.67;;
21060;SDS011;10689;50.836;3.266;2022-12-13T13:45:58;14.23;;;9.40;;
21060;SDS011;10689;50.836;3.266;2022-12-13T13:53:52;12.00;;;7.97;;
21060;SDS011;10689;50.836;3.266;2022-12-13T13:57:03;14.87;;;8.37;;
21060;SDS011;10689;50.836;3.266;2022-12-13T14:05:07;12.73;;;7.93;;
21060;SDS011;10689;50.836;3.266;2022-12-13T14:11:44;12.20;;;8.30;;
21060;SDS011;10689;50.836;3.266;2022-12-13T14:17:13;15.70;;;7.60;;
21060;SDS011;10689;50.836;3.266;2022-12-13T14:28:46;13.10;;;7.53;;
21060;SDS011;10689;50.836;3.266;2022-12-13T14:31:25;17.33;;;8.47;;
21060;SDS011;10689;50.836;3.266;2022-12-13T14:34:01;9.67;;;7.27;;
21060;SDS011;10689;50.836;3.266;2022-12-13T14:36:35;11.10;;;7.33;;
21060;SDS011;10689;50.836;3.266;2022-12-13T14:39:12;15.30;;;8.60;;
21060;SDS011;10689;50.836;3.266;2022-12-13T14:41:44;10.40;;;7.37;;
21060;SDS011;10689;50.836;3.266;2022-12-13T14:44:26;11.87;;;7.40;;
21060;SDS011;10689;50.836;3.266;2022-12-13T14:47:00;10.30;;;7.67;;
21060;SDS011;10689;50.836;3.266;2022-12-13T14:49:27;12.50;;;8.57;;
21060;SDS011;10689;50.836;3.266;2022-12-13T14:52:01;12.53;;;9.07;;
21060;SDS011;10689;50.836;3.266;2022-12-13T14:54:54;12.30;;;8.33;;
21060;SDS011;10689;50.836;3.266;2022-12-13T14:57:32;13.73;;;7.70;;
21060;SDS011;10689;50.836;3.266;2022-12-13T15:00:19;11.20;;;7.50;;
21060;SDS011;10689;50.836;3.266;2022-12-13T15:02:57;14.20;;;8.77;;
21060;SDS011;10689;50.836;3.266;2022-12-13T15:05:25;12.23;;;7.57;;
21060;SDS011;10689;50.836;3.266;2022-12-13T15:08:15;14.57;;;8.67;;
21060;SDS011;10689;50.836;3.266;2022-12-13T15:13:24;12.13;;;8.00;;
21060;SDS011;10689;50.836;3.266;2022-12-13T15:16:02;12.50;;;7.97;;
21060;SDS011;10689;50.836;3.266;2022-12-13T15:18:34;13.80;;;7.27;;
21060;SDS011;10689;50.836;3.266;2022-12-13T15:21:16;16.37;;;8.83;;
21060;SDS011;10689;50.836;3.266;2022-12-13T15:23:44;15.97;;;9.30;;
21060;SDS011;10689;50.836;3.266;2022-12-13T15:26:13;20.53;;;11.87;;
21060;SDS011;10689;50.836;3.266;2022-12-13T15:28:44;16.90;;;10.63;;
21060;SDS011;10689;50.836;3.266;2022-12-13T15:31:11;17.33;;;9.20;;
21060;SDS011;10689;50.836;3.266;2022-12-13T15:33:40;18.53;;;11.87;;
21060;SDS011;10689;50.836;3.266;2022-12-13T15:36:14;19.43;;;11.30;;
21060;SDS011;10689;50.836;3.266;2022-12-13T15:41:21;21.57;;;11.97;;
21060;SDS011;10689;50.836;3.266;2022-12-13T15:43:52;20.67;;;11.87;;
21060;SDS011;10689;50.836;3.266;2022-12-13T15:46:28;23.40;;;14.03;;
21060;SDS011;10689;50.836;3.266;2022-12-13T15:48:56;21.50;;;12.63;;
21060;SDS011;10689;50.836;3.266;2022-12-13T15:51:25;19.43;;;12.47;;
21060;SDS011;10689;50.836;3.266;2022-12-13T15:53:59;18.33;;;12.40;;
21060;SDS011;10689;50.836;3.266;2022-12-13T15:56:37;24.50;;;12.17;;
21060;SDS011;10689;50.836;3.266;2022-12-13T15:59:05;24.10;;;12.73;;
21060;SDS011;10689;50.836;3.266;2022-12-13T16:01:52;18.67;;;12.93;;
21060;SDS011;10689;50.836;3.266;2022-12-13T16:04:28;27.93;;;13.40;;
21060;SDS011;10689;50.836;3.266;2022-12-13T16:06:56;23.57;;;14.20;;
21060;SDS011;10689;50.836;3.266;2022-12-13T16:09:24;23.37;;;12.87;;
21060;SDS011;10689;50.836;3.266;2022-12-13T16:11:54;25.63;;;14.27;;
21060;SDS011;10689;50.836;3.266;2022-12-13T16:16:55;19.13;;;12.47;;
21060;SDS011;10689;50.836;3.266;2022-12-13T16:19:24;28.47;;;14.20;;
21060;SDS011;10689;50.836;3.266;2022-12-13T16:21:49;20.33;;;12.73;;
21060;SDS011;10689;50.836;3.266;2022-12-13T16:24:18;19.80;;;12.93;;
21060;SDS011;10689;50.836;3.266;2022-12-13T16:26:44;23.08;;;15.85;;
21060;SDS011;10689;50.836;3.266;2022-12-13T16:29:12;21.33;;;14.13;;
21060;SDS011;10689;50.836;3.266;2022-12-13T16:31:40;22.17;;;14.43;;
21060;SDS011;10689;50.836;3.266;2022-12-13T16:34:07;20.17;;;14.07;;
21060;SDS011;10689;50.836;3.266;2022-12-13T16:36:32;21.40;;;12.90;;
21060;SDS011;10689;50.836;3.266;2022-12-13T16:38:58;21.80;;;14.73;;
21060;SDS011;10689;50.836;3.266;2022-12-13T16:41:24;23.10;;;13.13;;
21060;SDS011;10689;50.836;3.266;2022-12-13T16:43:51;19.57;;;13.27;;
21060;SDS011;10689;50.836;3.266;2022-12-13T16:46:23;19.60;;;13.17;;
21060;SDS011;10689;50.836;3.266;2022-12-13T16:48:51;20.67;;;13.70;;
21060;SDS011;10689;50.836;3.266;2022-12-13T16:51:17;21.60;;;13.37;;
21060;SDS011;10689;50.836;3.266;2022-12-13T16:53:44;19.30;;;12.73;;
21060;SDS011;10689;50.836;3.266;2022-12-13T16:56:12;22.40;;;14.20;;
21060;SDS011;10689;50.836;3.266;2022-12-13T16:58:40;18.93;;;12.27;;
21060;SDS011;10689;50.836;3.266;2022-12-13T17:01:11;19.27;;;12.27;;
21060;SDS011;10689;50.836;3.266;2022-12-13T17:03:39;22.70;;;13.90;;